createdAt,value
2023-05-15T00:00:15.780Z,4.80
2023-05-15T00:02:45.002Z,5.90
2023-05-15T00:05:13.273Z,5.93
2023-05-15T00:07:40.895Z,6.30
2023-05-15T00:10:08.968Z,6.77
2023-05-15T00:12:36.982Z,6.40
2023-05-15T00:15:03.945Z,7.17
2023-05-15T00:17:31.057Z,6.63
2023-05-15T00:19:59.181Z,5.07
2023-05-15T00:22:26.567Z,4.93
2023-05-15T00:24:53.831Z,4.87
2023-05-15T00:27:20.818Z,5.27
2023-05-15T00:29:47.503Z,4.73
2023-05-15T00:32:14.340Z,4.90
2023-05-15T00:34:41.078Z,4.83
2023-05-15T00:37:08.869Z,5.07
2023-05-15T00:39:36.202Z,5.10
2023-05-15T00:42:08.124Z,5.33
2023-05-15T00:44:35.986Z,5.03
2023-05-15T00:47:03.909Z,4.57
2023-05-15T00:49:32.983Z,4.90
2023-05-15T00:52:03.942Z,4.37
2023-05-15T00:54:31.004Z,4.80
2023-05-15T00:56:59.451Z,4.10
2023-05-15T00:59:31.663Z,4.53
2023-05-15T01:01:58.989Z,4.97
2023-05-15T01:04:26.043Z,4.37
2023-05-15T01:06:55.491Z,4.70
2023-05-15T01:09:25.706Z,4.47
2023-05-15T01:11:55.117Z,4.47
2023-05-15T01:14:21.987Z,4.67
2023-05-15T01:16:49.086Z,4.77
2023-05-15T01:19:16.231Z,4.97
2023-05-15T01:22:19.408Z,5.20
2023-05-15T01:25:08.269Z,6.80
2023-05-15T01:27:51.955Z,5.13
2023-05-15T01:30:33.510Z,5.30
2023-05-15T01:33:30.004Z,5.07
2023-05-15T01:36:07.233Z,5.27
2023-05-15T01:38:38.736Z,5.00
2023-05-15T01:41:22.993Z,4.77
2023-05-15T01:43:59.177Z,4.40
2023-05-15T01:46:30.974Z,4.60
2023-05-15T01:49:01.141Z,4.57
2023-05-15T01:51:29.148Z,4.90
2023-05-15T01:53:58.482Z,4.90
2023-05-15T01:56:27.178Z,4.37
2023-05-15T01:58:55.421Z,4.67
2023-05-15T02:01:23.657Z,4.73
2023-05-15T02:03:50.960Z,4.23
2023-05-15T02:06:18.333Z,4.50
2023-05-15T02:08:46.783Z,5.00
2023-05-15T02:11:14.123Z,4.60
2023-05-15T02:13:42.254Z,4.53
2023-05-15T02:16:09.364Z,3.70
2023-05-15T02:18:37.590Z,4.33
2023-05-15T02:21:04.532Z,4.33
2023-05-15T02:23:31.420Z,4.20
2023-05-15T02:26:08.109Z,3.90
2023-05-15T02:28:59.710Z,4.23
2023-05-15T02:31:59.230Z,4.53
2023-05-15T02:34:47.272Z,4.10
2023-05-15T02:37:18.146Z,4.00
2023-05-15T02:39:50.081Z,4.07
2023-05-15T02:42:18.153Z,4.13
2023-05-15T02:44:46.456Z,4.00
2023-05-15T02:47:14.531Z,4.23
2023-05-15T02:49:41.681Z,4.20
2023-05-15T02:52:08.946Z,4.17
2023-05-15T02:54:36.307Z,3.90
2023-05-15T02:57:03.064Z,4.30
2023-05-15T02:59:29.760Z,3.93
2023-05-15T03:01:56.691Z,4.30
2023-05-15T03:04:23.962Z,4.10
2023-05-15T03:06:50.857Z,4.07
2023-05-15T03:09:18.023Z,4.10
2023-05-15T03:11:44.972Z,4.00
2023-05-15T03:14:12.000Z,4.07
2023-05-15T03:16:38.923Z,4.40
2023-05-15T03:19:06.461Z,4.63
2023-05-15T03:21:35.220Z,4.10
2023-05-15T03:24:14.177Z,4.20
2023-05-15T03:26:44.748Z,4.40
2023-05-15T03:29:11.634Z,4.03
2023-05-15T03:31:38.383Z,4.20
2023-05-15T03:34:05.434Z,4.50
2023-05-15T03:36:32.188Z,4.17
2023-05-15T03:38:58.864Z,4.77
2023-05-15T03:41:28.130Z,4.27
2023-05-15T03:43:54.782Z,4.00
2023-05-15T03:46:21.625Z,5.03
2023-05-15T03:48:48.614Z,4.40
2023-05-15T03:51:15.673Z,4.80
2023-05-15T03:53:42.358Z,4.90
2023-05-15T03:56:09.438Z,4.73
2023-05-15T03:58:36.441Z,4.07
2023-05-15T04:01:03.150Z,4.33
2023-05-15T04:03:29.893Z,4.10
2023-05-15T04:05:56.936Z,3.80
2023-05-15T04:08:23.711Z,4.23
2023-05-15T04:10:51.085Z,3.97
2023-05-15T04:13:17.957Z,4.07
2023-05-15T04:15:44.986Z,3.73
2023-05-15T04:18:11.699Z,3.83
2023-05-15T04:20:38.467Z,4.40
2023-05-15T04:23:05.996Z,3.90
2023-05-15T04:25:33.088Z,4.00
2023-05-15T04:27:59.759Z,3.80
2023-05-15T04:30:26.804Z,3.70
2023-05-15T04:32:54.223Z,3.80
2023-05-15T04:35:21.067Z,3.70
2023-05-15T04:37:47.850Z,3.37
2023-05-15T04:40:17.612Z,3.57
2023-05-15T04:42:44.646Z,3.83
2023-05-15T04:45:11.511Z,3.67
2023-05-15T04:47:38.509Z,3.23
2023-05-15T04:50:06.889Z,3.40
2023-05-15T04:52:33.751Z,3.43
2023-05-15T04:55:01.120Z,3.20
2023-05-15T04:57:28.280Z,3.20
2023-05-15T04:59:55.038Z,2.90
2023-05-15T05:02:22.966Z,2.90
2023-05-15T05:04:49.967Z,2.93
2023-05-15T05:07:17.022Z,2.80
2023-05-15T05:09:43.997Z,2.53
2023-05-15T05:12:10.784Z,2.77
2023-05-15T05:14:37.639Z,2.63
2023-05-15T05:17:04.616Z,2.70
2023-05-15T05:19:31.387Z,3.53
2023-05-15T05:22:01.610Z,2.77
2023-05-15T05:24:28.608Z,2.43
2023-05-15T05:26:58.363Z,2.70
2023-05-15T05:29:26.081Z,2.87
2023-05-15T05:31:53.581Z,3.20
2023-05-15T05:34:20.355Z,2.77
2023-05-15T05:36:47.185Z,3.00
2023-05-15T05:39:16.551Z,2.70
2023-05-15T05:41:43.812Z,2.90
2023-05-15T05:44:10.651Z,2.80
2023-05-15T05:46:37.819Z,3.00
2023-05-15T05:49:04.847Z,2.80
2023-05-15T05:51:31.943Z,2.80
2023-05-15T05:53:58.956Z,3.23
2023-05-15T05:56:26.630Z,2.80
2023-05-15T05:58:53.618Z,2.70
2023-05-15T06:01:21.313Z,2.67
2023-05-15T06:03:48.255Z,3.40
2023-05-15T06:06:15.087Z,2.30
2023-05-15T06:08:42.015Z,2.60
2023-05-15T06:11:08.721Z,2.25
2023-05-15T06:13:36.117Z,2.80
2023-05-15T06:16:02.869Z,2.38
2023-05-15T06:18:29.687Z,2.80
2023-05-15T06:20:58.859Z,2.83
2023-05-15T06:23:26.649Z,3.33
2023-05-15T06:25:53.424Z,2.40
2023-05-15T06:28:20.684Z,2.50
2023-05-15T06:30:47.453Z,2.65
2023-05-15T06:33:14.271Z,2.70
2023-05-15T06:35:41.345Z,3.72
2023-05-15T06:38:07.996Z,3.10
2023-05-15T06:40:35.256Z,2.97
2023-05-15T06:43:01.975Z,2.80
2023-05-15T06:45:29.169Z,2.92
2023-05-15T06:47:57.358Z,2.70
2023-05-15T06:50:25.356Z,2.90
2023-05-15T06:52:52.339Z,2.80
2023-05-15T06:55:19.117Z,3.13
2023-05-15T06:57:46.112Z,3.30
2023-05-15T07:00:13.538Z,3.20
2023-05-15T07:02:40.709Z,3.47
2023-05-15T07:05:08.811Z,2.77
2023-05-15T07:07:35.956Z,2.90
2023-05-15T07:10:02.642Z,2.67
2023-05-15T07:12:29.372Z,2.90
2023-05-15T07:14:56.130Z,3.07
2023-05-15T07:17:23.351Z,3.03
2023-05-15T07:19:50.110Z,3.20
2023-05-15T07:22:17.076Z,3.10
2023-05-15T07:24:43.773Z,2.83
2023-05-15T07:27:10.516Z,2.50
2023-05-15T07:29:37.190Z,2.45
2023-05-15T07:32:04.415Z,2.60
2023-05-15T07:34:31.176Z,2.15
2023-05-15T07:36:58.223Z,2.40
2023-05-15T07:39:25.000Z,3.03
2023-05-15T07:41:51.788Z,2.20
2023-05-15T07:44:18.702Z,2.90
2023-05-15T07:46:45.994Z,3.00
2023-05-15T07:49:12.865Z,3.10
2023-05-15T07:51:40.741Z,4.00
2023-05-15T07:54:07.696Z,3.37
2023-05-15T07:56:34.542Z,4.00
2023-05-15T07:59:01.568Z,3.20
2023-05-15T08:01:30.595Z,3.07
2023-05-15T08:03:58.530Z,3.50
2023-05-15T08:06:25.900Z,3.03
2023-05-15T08:08:52.642Z,3.03
2023-05-15T08:11:19.405Z,3.27
2023-05-15T08:13:46.215Z,3.50
2023-05-15T08:16:13.071Z,2.60
2023-05-15T08:18:40.056Z,3.20
2023-05-15T08:21:07.003Z,3.33
2023-05-15T08:23:33.757Z,3.40
2023-05-15T08:26:00.905Z,3.20
2023-05-15T08:28:27.900Z,2.60
2023-05-15T08:30:54.688Z,2.67
2023-05-15T08:33:21.712Z,3.00
2023-05-15T08:35:48.692Z,2.83
2023-05-15T08:38:15.433Z,2.63
2023-05-15T08:40:46.277Z,2.70
2023-05-15T08:43:16.308Z,2.80
2023-05-15T08:45:44.131Z,2.70
2023-05-15T08:48:22.723Z,2.47
2023-05-15T08:50:50.680Z,2.90
2023-05-15T08:53:18.140Z,3.63
2023-05-15T08:55:45.198Z,4.10
2023-05-15T08:58:13.370Z,3.60
2023-05-15T09:00:40.324Z,3.30
2023-05-15T09:03:07.059Z,3.53
2023-05-15T09:05:35.667Z,3.70
2023-05-15T09:08:06.262Z,3.30
2023-05-15T09:10:33.841Z,3.27
2023-05-15T09:13:02.602Z,3.13
2023-05-15T09:15:30.582Z,3.20
2023-05-15T09:17:58.342Z,2.80
2023-05-15T09:20:29.851Z,2.75
2023-05-15T09:23:00.703Z,2.60
2023-05-15T09:25:40.690Z,3.03
2023-05-15T09:28:11.254Z,2.70
2023-05-15T09:30:38.929Z,2.80
2023-05-15T09:33:06.059Z,2.40
2023-05-15T09:35:40.661Z,2.50
2023-05-15T09:38:13.135Z,2.60
2023-05-15T09:40:43.460Z,2.42
2023-05-15T09:43:12.145Z,3.30
2023-05-15T09:45:39.008Z,3.35
2023-05-15T09:48:07.625Z,3.10
2023-05-15T09:50:36.809Z,3.03
2023-05-15T09:53:04.623Z,5.22
2023-05-15T09:55:35.218Z,2.95
2023-05-15T09:58:18.537Z,2.80
2023-05-15T10:00:48.979Z,3.00
2023-05-15T10:03:20.089Z,2.90
2023-05-15T10:05:47.528Z,2.53
2023-05-15T10:08:15.778Z,2.70
2023-05-15T10:10:43.598Z,2.78
2023-05-15T10:13:11.914Z,2.38
2023-05-15T10:15:39.753Z,2.60
2023-05-15T10:18:07.586Z,2.42
2023-05-15T10:20:36.022Z,2.45
2023-05-15T10:23:05.553Z,2.55
2023-05-15T10:25:47.849Z,2.28
2023-05-15T10:28:15.944Z,2.53
2023-05-15T10:30:43.224Z,2.10
2023-05-15T10:33:13.217Z,1.98
2023-05-15T10:35:40.506Z,2.40
2023-05-15T10:38:07.833Z,1.60
2023-05-15T10:40:37.805Z,1.75
2023-05-15T10:43:05.658Z,1.73
2023-05-15T10:45:33.762Z,1.90
2023-05-15T10:48:02.780Z,2.20
2023-05-15T10:50:29.884Z,2.00
2023-05-15T10:52:56.696Z,2.20
2023-05-15T10:55:23.788Z,2.40
2023-05-15T10:57:51.119Z,1.90
2023-05-15T11:00:24.180Z,2.20
2023-05-15T11:02:53.856Z,8.70
2023-05-15T11:05:21.156Z,5.40
2023-05-15T11:08:15.830Z,5.47
2023-05-15T11:10:42.832Z,6.43
2023-05-15T11:13:09.623Z,2.90
2023-05-15T11:15:44.615Z,2.60
2023-05-15T11:18:11.596Z,2.60
2023-05-15T11:20:40.996Z,2.50
2023-05-15T11:23:08.320Z,2.80
2023-05-15T11:25:36.301Z,2.67
2023-05-15T11:28:09.427Z,2.80
2023-05-15T11:30:38.435Z,2.97
2023-05-15T11:33:05.558Z,3.30
2023-05-15T11:35:43.048Z,2.90
2023-05-15T11:38:09.724Z,3.13
2023-05-15T11:40:58.428Z,3.33
2023-05-15T11:43:33.739Z,3.70
2023-05-15T11:46:03.872Z,3.33
2023-05-15T11:48:41.739Z,3.67
2023-05-15T11:51:23.229Z,3.67
2023-05-15T11:53:51.410Z,3.63
2023-05-15T11:56:19.697Z,3.47
2023-05-15T11:58:56.142Z,3.40
2023-05-15T12:01:23.195Z,3.27
2023-05-15T12:03:51.726Z,3.50
2023-05-15T12:06:18.869Z,3.40
2023-05-15T12:08:52.952Z,4.33
2023-05-15T12:11:24.411Z,4.20
2023-05-15T12:13:54.179Z,3.80
2023-05-15T12:16:27.784Z,3.70
2023-05-15T12:18:57.503Z,3.10
2023-05-15T12:21:27.060Z,3.23
2023-05-15T12:24:06.839Z,3.27
2023-05-15T12:26:35.463Z,3.00
2023-05-15T12:29:02.616Z,2.80
2023-05-15T12:31:29.843Z,3.30
2023-05-15T12:33:57.054Z,3.60
2023-05-15T12:36:23.733Z,3.30
2023-05-15T12:38:50.912Z,3.10
2023-05-15T12:41:20.280Z,2.73
2023-05-15T12:43:47.109Z,3.10
2023-05-15T12:46:14.863Z,3.17
2023-05-15T12:48:41.879Z,2.85
2023-05-15T12:51:08.891Z,3.08
2023-05-15T12:53:36.227Z,3.28
2023-05-15T12:56:04.969Z,2.85
2023-05-15T12:58:31.765Z,2.90
2023-05-15T13:00:58.952Z,3.20
2023-05-15T13:03:28.272Z,3.15
2023-05-15T13:05:55.364Z,3.45
2023-05-15T13:08:22.132Z,2.92
2023-05-15T13:10:57.266Z,3.72
2023-05-15T13:13:24.296Z,3.25
2023-05-15T13:15:51.234Z,3.33
2023-05-15T13:18:18.995Z,3.10
2023-05-15T13:20:47.373Z,3.38
2023-05-15T13:23:16.434Z,3.60
2023-05-15T13:25:43.680Z,3.90
2023-05-15T13:28:11.866Z,3.10
2023-05-15T13:30:41.669Z,3.17
2023-05-15T13:33:12.855Z,2.83
2023-05-15T13:35:43.225Z,2.80
2023-05-15T13:38:11.900Z,3.10
2023-05-15T13:40:39.358Z,3.00
2023-05-15T13:43:06.902Z,2.57
2023-05-15T13:45:34.031Z,2.83
2023-05-15T13:48:01.116Z,3.00
2023-05-15T13:50:28.145Z,2.60
2023-05-15T13:52:54.963Z,2.77
2023-05-15T13:55:23.134Z,3.07
2023-05-15T13:57:50.219Z,3.20
2023-05-15T14:00:17.566Z,3.27
2023-05-15T14:02:44.970Z,3.13
2023-05-15T14:05:14.829Z,2.80
2023-05-15T14:07:42.273Z,3.93
2023-05-15T14:10:09.772Z,3.40
2023-05-15T14:12:37.701Z,3.20
2023-05-15T14:15:05.322Z,4.00
2023-05-15T14:17:32.183Z,3.27
2023-05-15T14:19:59.042Z,4.00
2023-05-15T14:22:26.030Z,4.53
2023-05-15T14:24:53.632Z,3.73
2023-05-15T14:27:20.777Z,3.37
2023-05-15T14:29:49.569Z,3.83
2023-05-15T14:32:17.354Z,3.87
2023-05-15T14:34:44.634Z,3.90
2023-05-15T14:37:11.525Z,3.40
2023-05-15T14:39:38.503Z,3.50
2023-05-15T14:42:06.315Z,3.60
2023-05-15T14:44:34.030Z,3.77
2023-05-15T14:47:14.916Z,3.73
2023-05-15T14:49:41.881Z,4.40
2023-05-15T14:52:10.423Z,4.07
2023-05-15T14:54:38.574Z,3.47
2023-05-15T14:57:05.857Z,3.73
2023-05-15T14:59:32.840Z,3.70
2023-05-15T15:01:59.983Z,3.53
2023-05-15T15:04:29.087Z,3.23
2023-05-15T15:06:57.319Z,3.80
2023-05-15T15:09:25.381Z,4.03
2023-05-15T15:11:53.391Z,3.60
2023-05-15T15:14:20.388Z,3.60
2023-05-15T15:16:47.807Z,3.90
2023-05-15T15:19:16.781Z,3.67
2023-05-15T15:21:45.427Z,3.50
2023-05-15T15:24:12.129Z,3.80
2023-05-15T15:26:39.054Z,4.00
2023-05-15T15:29:05.899Z,3.60
2023-05-15T15:31:32.812Z,3.93
2023-05-15T15:33:59.671Z,3.73
2023-05-15T15:36:26.787Z,3.67
2023-05-15T15:38:53.847Z,3.50
2023-05-15T15:41:23.653Z,3.77
2023-05-15T15:43:50.647Z,3.40
2023-05-15T15:46:17.481Z,3.60
2023-05-15T15:48:44.556Z,3.93
2023-05-15T15:51:11.562Z,3.53
2023-05-15T15:53:38.828Z,3.33
2023-05-15T15:56:07.270Z,3.60
2023-05-15T15:58:34.059Z,3.40
2023-05-15T16:01:00.949Z,3.97
2023-05-15T16:03:27.857Z,3.23
2023-05-15T16:05:54.890Z,3.60
2023-05-15T16:08:21.651Z,3.83
2023-05-15T16:10:49.400Z,4.00
2023-05-15T16:13:16.191Z,3.93
2023-05-15T16:15:43.147Z,3.83
2023-05-15T16:18:10.142Z,3.77
2023-05-15T16:20:37.007Z,3.90
2023-05-15T16:23:03.735Z,4.67
2023-05-15T16:25:30.789Z,4.33
2023-05-15T16:27:57.580Z,4.37
2023-05-15T16:30:33.389Z,4.73
2023-05-15T16:33:07.512Z,4.40
2023-05-15T16:35:36.777Z,4.30
2023-05-15T16:38:04.827Z,4.73
2023-05-15T16:40:31.794Z,4.57
2023-05-15T16:42:58.576Z,4.33
2023-05-15T16:45:25.725Z,4.57
2023-05-15T16:47:52.448Z,4.60
2023-05-15T16:50:19.290Z,4.83
2023-05-15T16:52:47.902Z,4.83
2023-05-15T16:55:17.236Z,4.77
2023-05-15T16:57:45.356Z,4.97
2023-05-15T17:00:13.655Z,4.97
2023-05-15T17:02:41.943Z,4.80
2023-05-15T17:05:10.472Z,4.03
2023-05-15T17:07:38.448Z,5.00
2023-05-15T17:10:07.065Z,5.23
2023-05-15T17:12:34.191Z,5.10
2023-05-15T17:15:00.994Z,4.67
2023-05-15T17:17:28.530Z,4.63
2023-05-15T17:20:01.852Z,5.07
2023-05-15T17:22:31.366Z,5.17
2023-05-15T17:24:58.272Z,5.83
2023-05-15T17:27:25.382Z,5.53
2023-05-15T17:29:52.347Z,5.17
2023-05-15T17:32:20.460Z,4.90
2023-05-15T17:34:47.392Z,5.00
2023-05-15T17:37:14.460Z,4.17
2023-05-15T17:39:41.717Z,5.03
2023-05-15T17:42:08.495Z,5.00
2023-05-15T17:44:35.311Z,4.60
2023-05-15T17:47:02.075Z,4.87
2023-05-15T17:49:29.000Z,4.80
2023-05-15T17:51:56.075Z,4.43
2023-05-15T17:54:22.869Z,4.67
2023-05-15T17:56:49.656Z,4.50
2023-05-15T17:59:16.691Z,4.93
2023-05-15T18:01:43.456Z,4.67
2023-05-15T18:04:10.776Z,5.40
2023-05-15T18:06:37.952Z,5.30
2023-05-15T18:09:05.457Z,4.83
2023-05-15T18:11:32.254Z,5.50
2023-05-15T18:13:59.099Z,5.50
2023-05-15T18:16:26.304Z,5.80
2023-05-15T18:18:53.176Z,5.37
2023-05-15T18:21:20.328Z,5.27
2023-05-15T18:23:47.246Z,5.30
2023-05-15T18:26:14.335Z,5.20
2023-05-15T18:28:41.396Z,5.80
2023-05-15T18:31:08.243Z,5.43
2023-05-15T18:33:35.112Z,6.50
2023-05-15T18:36:02.320Z,5.90
2023-05-15T18:38:29.498Z,6.10
2023-05-15T18:40:56.228Z,6.33
2023-05-15T18:43:22.973Z,6.17
2023-05-15T18:45:49.949Z,7.10
2023-05-15T18:48:16.641Z,6.23
2023-05-15T18:50:43.818Z,6.53
2023-05-15T18:53:10.795Z,5.73
2023-05-15T18:55:38.915Z,5.40
2023-05-15T18:58:06.352Z,6.20
2023-05-15T19:00:38.584Z,5.53
2023-05-15T19:03:06.772Z,5.57
2023-05-15T19:05:34.260Z,5.33
2023-05-15T19:08:01.848Z,5.60
2023-05-15T19:10:29.841Z,6.63
2023-05-15T19:12:57.321Z,6.40
2023-05-15T19:15:25.220Z,6.17
2023-05-15T19:17:52.181Z,6.20
2023-05-15T19:20:19.770Z,5.87
2023-05-15T19:22:46.634Z,6.47
2023-05-15T19:25:13.418Z,6.70
2023-05-15T19:27:40.462Z,6.13
2023-05-15T19:30:07.959Z,5.60
2023-05-15T19:32:34.884Z,5.70
2023-05-15T19:35:02.099Z,6.27
2023-05-15T19:37:29.061Z,5.67
2023-05-15T19:39:56.366Z,6.27
2023-05-15T19:42:23.102Z,6.50
2023-05-15T19:44:49.871Z,6.57
2023-05-15T19:47:16.861Z,7.77
2023-05-15T19:49:43.565Z,7.10
2023-05-15T19:52:10.328Z,7.20
2023-05-15T19:54:37.242Z,7.33
2023-05-15T19:57:04.067Z,7.73
2023-05-15T19:59:30.870Z,8.27
2023-05-15T20:01:57.874Z,8.00
2023-05-15T20:04:26.058Z,7.70
2023-05-15T20:06:52.990Z,8.13
2023-05-15T20:09:20.060Z,7.80
2023-05-15T20:11:46.770Z,7.90
2023-05-15T20:14:15.043Z,7.80
2023-05-15T20:16:42.032Z,8.10
2023-05-15T20:19:11.029Z,8.67
2023-05-15T20:21:38.393Z,8.73
2023-05-15T20:24:06.144Z,9.27
2023-05-15T20:26:35.982Z,9.03
2023-05-15T20:29:03.667Z,7.83
2023-05-15T20:31:30.612Z,8.67
2023-05-15T20:33:57.399Z,8.97
2023-05-15T20:36:25.625Z,9.57
2023-05-15T20:38:52.925Z,7.67
2023-05-15T20:41:22.306Z,8.10
2023-05-15T20:43:49.949Z,7.70
2023-05-15T20:46:17.064Z,7.50
2023-05-15T20:48:44.456Z,7.13
2023-05-15T20:51:11.235Z,7.43
2023-05-15T20:53:37.955Z,7.73
2023-05-15T20:56:05.150Z,7.40
2023-05-15T20:58:31.918Z,7.80
2023-05-15T21:01:01.458Z,8.20
2023-05-15T21:03:29.249Z,7.40
2023-05-15T21:05:57.513Z,7.40
2023-05-15T21:08:24.631Z,7.93
2023-05-15T21:10:53.236Z,8.23
2023-05-15T21:13:20.280Z,9.07
2023-05-15T21:15:49.355Z,8.90
2023-05-15T21:18:16.357Z,8.43
2023-05-15T21:20:43.116Z,8.90
2023-05-15T21:23:10.089Z,8.23
2023-05-15T21:25:38.006Z,8.90
2023-05-15T21:28:05.672Z,9.77
2023-05-15T21:30:32.600Z,8.33
2023-05-15T21:32:59.434Z,8.60
2023-05-15T21:35:29.102Z,8.37
2023-05-15T21:37:56.038Z,8.57
2023-05-15T21:40:23.060Z,8.33
2023-05-15T21:42:49.831Z,8.63
2023-05-15T21:45:16.931Z,7.80
2023-05-15T21:47:43.738Z,9.17
2023-05-15T21:50:10.768Z,8.87
2023-05-15T21:52:37.863Z,8.50
2023-05-15T21:55:05.044Z,8.13
2023-05-15T21:57:31.730Z,7.93
2023-05-15T21:59:58.718Z,8.40
2023-05-15T22:02:25.407Z,9.53
2023-05-15T22:04:52.474Z,8.33
2023-05-15T22:07:19.581Z,8.70
2023-05-15T22:09:46.589Z,8.33
2023-05-15T22:12:13.391Z,8.80
2023-05-15T22:14:54.666Z,8.97
2023-05-15T22:17:27.459Z,8.10
2023-05-15T22:19:54.339Z,9.87
2023-05-15T22:22:21.687Z,8.83
2023-05-15T22:24:48.373Z,8.63
2023-05-15T22:27:16.713Z,8.93
2023-05-15T22:29:44.018Z,8.43
2023-05-15T22:32:10.887Z,8.23
2023-05-15T22:34:37.911Z,7.87
2023-05-15T22:37:04.963Z,7.80
2023-05-15T22:39:33.009Z,7.50
2023-05-15T22:41:59.688Z,8.33
2023-05-15T22:44:26.536Z,8.27
2023-05-15T22:46:53.552Z,8.47
2023-05-15T22:49:25.300Z,8.80
2023-05-15T22:51:57.088Z,8.30
2023-05-15T22:54:24.241Z,7.80
2023-05-15T22:56:52.154Z,8.57
2023-05-15T22:59:19.679Z,8.87
2023-05-15T23:01:46.928Z,7.87
2023-05-15T23:04:14.275Z,8.87
2023-05-15T23:06:41.397Z,8.17
2023-05-15T23:09:08.662Z,8.00
2023-05-15T23:11:35.897Z,8.30
2023-05-15T23:14:03.111Z,9.20
2023-05-15T23:16:30.007Z,8.00
2023-05-15T23:19:00.294Z,7.27
2023-05-15T23:21:28.378Z,7.40
2023-05-15T23:23:55.073Z,6.80
2023-05-15T23:26:22.080Z,7.40
2023-05-15T23:28:49.065Z,7.93
2023-05-15T23:31:16.328Z,7.97
2023-05-15T23:33:43.387Z,7.67
2023-05-15T23:36:10.630Z,8.00
2023-05-15T23:38:37.376Z,7.63
2023-05-15T23:41:04.516Z,8.00
2023-05-15T23:43:32.244Z,8.17
2023-05-15T23:45:59.187Z,8.00
2023-05-15T23:48:26.245Z,8.03
2023-05-15T23:50:53.322Z,9.67
2023-05-15T23:53:20.480Z,8.50
2023-05-15T23:55:47.432Z,7.63
2023-05-15T23:58:14.161Z,8.60
